sensor_id;sensor_type;location;lat;lon;timestamp;P1;durP1;ratioP1;P2;durP2;ratioP2
43700;SDS011;58809;47.984;7.964;2023-07-28T00:02:04;4.97;;;4.13;;
43700;SDS011;58809;47.984;7.964;2023-07-28T00:05:06;6.53;;;3.85;;
43700;SDS011;58809;47.984;7.964;2023-07-28T00:08:08;4.75;;;4.25;;
43700;SDS011;58809;47.984;7.964;2023-07-28T00:11:10;5.97;;;3.80;;
43700;SDS011;58809;47.984;7.964;2023-07-28T00:14:13;6.65;;;3.80;;
43700;SDS011;58809;47.984;7.964;2023-07-28T00:17:15;7.95;;;4.25;;
43700;SDS011;58809;47.984;7.964;2023-07-28T00:20:17;5.53;;;4.35;;
43700;SDS011;58809;47.984;7.964;2023-07-28T00:23:19;5.15;;;4.50;;
43700;SDS011;58809;47.984;7.964;2023-07-28T00:26:20;6.53;;;4.63;;
43700;SDS011;58809;47.984;7.964;2023-07-28T00:29:22;5.90;;;4.70;;
43700;SDS011;58809;47.984;7.964;2023-07-28T00:32:23;6.88;;;4.22;;
43700;SDS011;58809;47.984;7.964;2023-07-28T00:35:25;5.80;;;4.28;;
43700;SDS011;58809;47.984;7.964;2023-07-28T00:38:26;6.50;;;4.50;;
43700;SDS011;58809;47.984;7.964;2023-07-28T00:41:30;5.00;;;4.50;;
43700;SDS011;58809;47.984;7.964;2023-07-28T00:44:32;7.03;;;4.60;;
43700;SDS011;58809;47.984;7.964;2023-07-28T00:47:34;5.60;;;4.18;;
43700;SDS011;58809;47.984;7.964;2023-07-28T00:50:37;7.05;;;4.38;;
43700;SDS011;58809;47.984;7.964;2023-07-28T00:53:39;4.90;;;4.20;;
43700;SDS011;58809;47.984;7.964;2023-07-28T00:56:41;6.07;;;4.38;;
43700;SDS011;58809;47.984;7.964;2023-07-28T00:59:43;6.53;;;4.50;;
43700;SDS011;58809;47.984;7.964;2023-07-28T01:02:45;6.15;;;3.95;;
43700;SDS011;58809;47.984;7.964;2023-07-28T01:09:02;7.07;;;4.53;;
43700;SDS011;58809;47.984;7.964;2023-07-28T01:12:07;6.20;;;4.82;;
43700;SDS011;58809;47.984;7.964;2023-07-28T01:15:10;9.60;;;5.05;;
43700;SDS011;58809;47.984;7.964;2023-07-28T01:18:12;5.47;;;4.38;;
43700;SDS011;58809;47.984;7.964;2023-07-28T01:21:14;7.93;;;4.75;;
43700;SDS011;58809;47.984;7.964;2023-07-28T01:27:47;6.15;;;4.45;;
43700;SDS011;58809;47.984;7.964;2023-07-28T01:30:51;5.28;;;4.68;;
43700;SDS011;58809;47.984;7.964;2023-07-28T01:33:52;6.38;;;4.45;;
43700;SDS011;58809;47.984;7.964;2023-07-28T01:36:54;7.53;;;4.50;;
43700;SDS011;58809;47.984;7.964;2023-07-28T01:39:56;6.65;;;4.50;;
43700;SDS011;58809;47.984;7.964;2023-07-28T01:42:58;5.93;;;5.07;;
43700;SDS011;58809;47.984;7.964;2023-07-28T01:46:00;6.45;;;4.60;;
43700;SDS011;58809;47.984;7.964;2023-07-28T01:49:02;7.68;;;5.22;;
43700;SDS011;58809;47.984;7.964;2023-07-28T01:52:03;8.48;;;4.90;;
43700;SDS011;58809;47.984;7.964;2023-07-28T01:55:05;6.07;;;4.70;;
43700;SDS011;58809;47.984;7.964;2023-07-28T01:58:07;5.15;;;4.47;;
43700;SDS011;58809;47.984;7.964;2023-07-28T02:01:12;5.93;;;4.63;;
43700;SDS011;58809;47.984;7.964;2023-07-28T02:04:14;7.28;;;4.82;;
43700;SDS011;58809;47.984;7.964;2023-07-28T02:07:17;6.38;;;4.85;;
43700;SDS011;58809;47.984;7.964;2023-07-28T02:10:19;8.77;;;6.25;;
43700;SDS011;58809;47.984;7.964;2023-07-28T02:13:21;7.88;;;5.40;;
43700;SDS011;58809;47.984;7.964;2023-07-28T02:16:22;7.13;;;5.40;;
43700;SDS011;58809;47.984;7.964;2023-07-28T02:19:24;6.95;;;5.35;;
43700;SDS011;58809;47.984;7.964;2023-07-28T02:22:26;5.85;;;5.05;;
43700;SDS011;58809;47.984;7.964;2023-07-28T02:25:28;5.93;;;4.90;;
43700;SDS011;58809;47.984;7.964;2023-07-28T02:28:30;6.47;;;4.70;;
43700;SDS011;58809;47.984;7.964;2023-07-28T02:31:31;6.68;;;4.93;;
43700;SDS011;58809;47.984;7.964;2023-07-28T02:34:33;7.15;;;4.70;;
43700;SDS011;58809;47.984;7.964;2023-07-28T02:37:34;7.65;;;4.75;;
43700;SDS011;58809;47.984;7.964;2023-07-28T02:40:36;5.75;;;4.57;;
43700;SDS011;58809;47.984;7.964;2023-07-28T02:43:38;5.15;;;4.50;;
43700;SDS011;58809;47.984;7.964;2023-07-28T02:46:39;5.30;;;4.65;;
43700;SDS011;58809;47.984;7.964;2023-07-28T02:49:41;7.90;;;4.57;;
43700;SDS011;58809;47.984;7.964;2023-07-28T02:52:44;6.72;;;5.03;;
43700;SDS011;58809;47.984;7.964;2023-07-28T02:55:46;7.85;;;5.13;;
43700;SDS011;58809;47.984;7.964;2023-07-28T02:58:48;6.15;;;4.93;;
43700;SDS011;58809;47.984;7.964;2023-07-28T03:01:50;5.75;;;4.55;;
43700;SDS011;58809;47.984;7.964;2023-07-28T03:04:53;6.13;;;5.07;;
43700;SDS011;58809;47.984;7.964;2023-07-28T03:10:59;6.28;;;4.78;;
43700;SDS011;58809;47.984;7.964;2023-07-28T03:17:05;5.32;;;4.65;;
43700;SDS011;58809;47.984;7.964;2023-07-28T03:20:07;9.02;;;5.43;;
43700;SDS011;58809;47.984;7.964;2023-07-28T03:23:09;6.30;;;5.15;;
43700;SDS011;58809;47.984;7.964;2023-07-28T03:26:10;6.03;;;4.95;;
43700;SDS011;58809;47.984;7.964;2023-07-28T03:29:12;7.00;;;5.50;;
43700;SDS011;58809;47.984;7.964;2023-07-28T03:32:13;5.22;;;4.72;;
43700;SDS011;58809;47.984;7.964;2023-07-28T03:35:15;8.23;;;5.25;;
43700;SDS011;58809;47.984;7.964;2023-07-28T03:38:23;7.28;;;5.30;;
43700;SDS011;58809;47.984;7.964;2023-07-28T03:41:25;6.90;;;5.28;;
43700;SDS011;58809;47.984;7.964;2023-07-28T03:44:27;7.32;;;5.30;;
43700;SDS011;58809;47.984;7.964;2023-07-28T03:47:29;7.00;;;5.15;;
43700;SDS011;58809;47.984;7.964;2023-07-28T03:50:30;7.60;;;5.13;;
43700;SDS011;58809;47.984;7.964;2023-07-28T03:53:32;7.30;;;5.57;;
43700;SDS011;58809;47.984;7.964;2023-07-28T03:59:38;5.88;;;4.88;;
43700;SDS011;58809;47.984;7.964;2023-07-28T04:02:39;9.90;;;5.82;;
43700;SDS011;58809;47.984;7.964;2023-07-28T04:05:44;6.75;;;5.15;;
43700;SDS011;58809;47.984;7.964;2023-07-28T04:08:45;7.60;;;5.35;;
43700;SDS011;58809;47.984;7.964;2023-07-28T04:11:47;7.18;;;4.75;;
43700;SDS011;58809;47.984;7.964;2023-07-28T04:14:48;16.67;;;6.18;;
43700;SDS011;58809;47.984;7.964;2023-07-28T04:17:50;7.43;;;5.68;;
43700;SDS011;58809;47.984;7.964;2023-07-28T04:20:52;9.02;;;5.93;;
43700;SDS011;58809;47.984;7.964;2023-07-28T04:23:54;6.40;;;4.75;;
43700;SDS011;58809;47.984;7.964;2023-07-28T04:26:56;9.15;;;6.20;;
43700;SDS011;58809;47.984;7.964;2023-07-28T04:29:58;7.63;;;4.82;;
43700;SDS011;58809;47.984;7.964;2023-07-28T04:33:00;5.97;;;4.78;;
43700;SDS011;58809;47.984;7.964;2023-07-28T04:36:08;9.18;;;5.22;;
43700;SDS011;58809;47.984;7.964;2023-07-28T04:39:10;8.05;;;5.35;;
43700;SDS011;58809;47.984;7.964;2023-07-28T04:42:12;7.50;;;5.13;;
43700;SDS011;58809;47.984;7.964;2023-07-28T04:45:17;7.45;;;5.30;;
43700;SDS011;58809;47.984;7.964;2023-07-28T04:48:20;9.27;;;5.43;;
43700;SDS011;58809;47.984;7.964;2023-07-28T04:51:23;6.40;;;4.72;;
43700;SDS011;58809;47.984;7.964;2023-07-28T04:54:46;7.20;;;5.20;;
43700;SDS011;58809;47.984;7.964;2023-07-28T04:57:47;6.07;;;5.20;;
43700;SDS011;58809;47.984;7.964;2023-07-28T05:00:49;7.57;;;5.50;;
43700;SDS011;58809;47.984;7.964;2023-07-28T05:03:51;6.45;;;5.07;;
43700;SDS011;58809;47.984;7.964;2023-07-28T05:07:02;5.38;;;4.70;;
43700;SDS011;58809;47.984;7.964;2023-07-28T05:10:05;8.02;;;5.00;;
43700;SDS011;58809;47.984;7.964;2023-07-28T05:13:07;7.28;;;4.68;;
43700;SDS011;58809;47.984;7.964;2023-07-28T05:16:09;7.65;;;4.35;;
43700;SDS011;58809;47.984;7.964;2023-07-28T05:19:40;7.10;;;4.80;;
43700;SDS011;58809;47.984;7.964;2023-07-28T05:23:02;4.53;;;3.58;;
43700;SDS011;58809;47.984;7.964;2023-07-28T05:26:04;4.15;;;3.42;;
43700;SDS011;58809;47.984;7.964;2023-07-28T05:29:06;4.55;;;3.60;;
43700;SDS011;58809;47.984;7.964;2023-07-28T05:32:07;4.13;;;3.45;;
43700;SDS011;58809;47.984;7.964;2023-07-28T05:35:32;5.43;;;3.78;;
43700;SDS011;58809;47.984;7.964;2023-07-28T05:38:36;4.90;;;3.42;;
43700;SDS011;58809;47.984;7.964;2023-07-28T05:41:38;5.38;;;3.55;;
43700;SDS011;58809;47.984;7.964;2023-07-28T05:44:46;4.85;;;3.40;;
43700;SDS011;58809;47.984;7.964;2023-07-28T05:47:48;3.55;;;3.20;;
43700;SDS011;58809;47.984;7.964;2023-07-28T05:50:49;5.82;;;3.53;;
43700;SDS011;58809;47.984;7.964;2023-07-28T05:53:52;5.77;;;3.50;;
43700;SDS011;58809;47.984;7.964;2023-07-28T05:56:54;4.57;;;3.15;;
43700;SDS011;58809;47.984;7.964;2023-07-28T05:59:56;5.57;;;3.40;;
43700;SDS011;58809;47.984;7.964;2023-07-28T06:02:57;3.80;;;3.40;;
43700;SDS011;58809;47.984;7.964;2023-07-28T06:06:22;3.85;;;3.42;;
43700;SDS011;58809;47.984;7.964;2023-07-28T06:09:23;5.10;;;3.58;;
43700;SDS011;58809;47.984;7.964;2023-07-28T06:12:25;5.45;;;3.58;;
43700;SDS011;58809;47.984;7.964;2023-07-28T06:15:27;5.50;;;3.38;;
43700;SDS011;58809;47.984;7.964;2023-07-28T06:18:29;4.63;;;3.65;;
43700;SDS011;58809;47.984;7.964;2023-07-28T06:21:40;4.22;;;3.58;;
43700;SDS011;58809;47.984;7.964;2023-07-28T06:24:42;6.22;;;3.78;;
43700;SDS011;58809;47.984;7.964;2023-07-28T06:27:43;3.92;;;3.53;;
43700;SDS011;58809;47.984;7.964;2023-07-28T06:30:45;4.07;;;3.53;;
43700;SDS011;58809;47.984;7.964;2023-07-28T06:33:47;5.18;;;3.63;;
43700;SDS011;58809;47.984;7.964;2023-07-28T06:36:49;6.00;;;4.10;;
43700;SDS011;58809;47.984;7.964;2023-07-28T06:39:50;5.70;;;3.60;;
43700;SDS011;58809;47.984;7.964;2023-07-28T06:42:52;5.40;;;3.97;;
43700;SDS011;58809;47.984;7.964;2023-07-28T06:45:54;3.58;;;3.13;;
43700;SDS011;58809;47.984;7.964;2023-07-28T06:48:56;4.90;;;3.63;;
43700;SDS011;58809;47.984;7.964;2023-07-28T06:51:58;4.45;;;3.80;;
43700;SDS011;58809;47.984;7.964;2023-07-28T06:54:59;5.78;;;3.80;;
43700;SDS011;58809;47.984;7.964;2023-07-28T06:58:02;5.63;;;3.75;;
43700;SDS011;58809;47.984;7.964;2023-07-28T07:01:03;4.38;;;3.85;;
43700;SDS011;58809;47.984;7.964;2023-07-28T07:04:05;5.03;;;3.30;;
43700;SDS011;58809;47.984;7.964;2023-07-28T07:07:07;4.32;;;3.67;;
43700;SDS011;58809;47.984;7.964;2023-07-28T07:10:09;7.10;;;4.28;;
43700;SDS011;58809;47.984;7.964;2023-07-28T07:13:11;7.10;;;3.47;;
43700;SDS011;58809;47.984;7.964;2023-07-28T07:16:14;6.05;;;3.90;;
43700;SDS011;58809;47.984;7.964;2023-07-28T07:19:25;5.53;;;4.47;;
43700;SDS011;58809;47.984;7.964;2023-07-28T07:22:27;5.22;;;4.28;;
43700;SDS011;58809;47.984;7.964;2023-07-28T07:25:29;6.30;;;4.20;;
43700;SDS011;58809;47.984;7.964;2023-07-28T07:28:31;7.18;;;4.40;;
43700;SDS011;58809;47.984;7.964;2023-07-28T07:31:33;5.05;;;4.15;;
43700;SDS011;58809;47.984;7.964;2023-07-28T07:34:34;5.53;;;3.88;;
43700;SDS011;58809;47.984;7.964;2023-07-28T07:37:38;6.68;;;4.55;;
43700;SDS011;58809;47.984;7.964;2023-07-28T07:40:39;4.95;;;4.30;;
43700;SDS011;58809;47.984;7.964;2023-07-28T07:43:41;5.70;;;3.90;;
43700;SDS011;58809;47.984;7.964;2023-07-28T07:46:43;5.40;;;4.18;;
43700;SDS011;58809;47.984;7.964;2023-07-28T07:49:45;5.13;;;3.92;;
43700;SDS011;58809;47.984;7.964;2023-07-28T07:52:46;5.82;;;4.10;;
43700;SDS011;58809;47.984;7.964;2023-07-28T07:55:48;5.05;;;4.13;;
43700;SDS011;58809;47.984;7.964;2023-07-28T07:58:50;5.80;;;3.95;;
43700;SDS011;58809;47.984;7.964;2023-07-28T08:01:52;5.63;;;4.15;;
43700;SDS011;58809;47.984;7.964;2023-07-28T08:04:53;4.50;;;3.70;;
43700;SDS011;58809;47.984;7.964;2023-07-28T08:07:55;4.32;;;3.78;;
43700;SDS011;58809;47.984;7.964;2023-07-28T08:10:57;4.93;;;4.07;;
43700;SDS011;58809;47.984;7.964;2023-07-28T08:13:59;7.05;;;4.00;;
43700;SDS011;58809;47.984;7.964;2023-07-28T08:17:00;4.55;;;3.95;;
43700;SDS011;58809;47.984;7.964;2023-07-28T08:20:02;5.57;;;4.20;;
43700;SDS011;58809;47.984;7.964;2023-07-28T08:23:04;5.40;;;3.70;;
43700;SDS011;58809;47.984;7.964;2023-07-28T08:26:05;4.40;;;3.70;;
43700;SDS011;58809;47.984;7.964;2023-07-28T08:29:07;5.28;;;4.00;;
43700;SDS011;58809;47.984;7.964;2023-07-28T08:32:08;8.23;;;4.00;;
43700;SDS011;58809;47.984;7.964;2023-07-28T08:35:10;4.95;;;3.55;;
43700;SDS011;58809;47.984;7.964;2023-07-28T08:38:12;4.47;;;3.60;;
43700;SDS011;58809;47.984;7.964;2023-07-28T08:41:13;5.68;;;3.78;;
43700;SDS011;58809;47.984;7.964;2023-07-28T08:44:15;4.97;;;3.60;;
43700;SDS011;58809;47.984;7.964;2023-07-28T08:47:17;6.18;;;4.15;;
43700;SDS011;58809;47.984;7.964;2023-07-28T08:50:20;5.32;;;3.70;;
43700;SDS011;58809;47.984;7.964;2023-07-28T08:53:21;4.45;;;3.67;;
43700;SDS011;58809;47.984;7.964;2023-07-28T08:56:24;4.35;;;3.28;;
43700;SDS011;58809;47.984;7.964;2023-07-28T08:59:26;5.57;;;3.88;;
43700;SDS011;58809;47.984;7.964;2023-07-28T09:02:29;6.60;;;3.78;;
43700;SDS011;58809;47.984;7.964;2023-07-28T09:05:32;4.90;;;3.30;;
43700;SDS011;58809;47.984;7.964;2023-07-28T09:08:35;4.65;;;3.15;;
43700;SDS011;58809;47.984;7.964;2023-07-28T09:11:44;4.88;;;3.78;;
43700;SDS011;58809;47.984;7.964;2023-07-28T09:14:49;5.15;;;3.50;;
43700;SDS011;58809;47.984;7.964;2023-07-28T09:17:57;5.00;;;4.10;;
43700;SDS011;58809;47.984;7.964;2023-07-28T09:21:01;5.68;;;3.80;;
43700;SDS011;58809;47.984;7.964;2023-07-28T09:24:03;5.43;;;4.13;;
43700;SDS011;58809;47.984;7.964;2023-07-28T09:27:07;4.80;;;3.53;;
43700;SDS011;58809;47.984;7.964;2023-07-28T09:30:22;4.65;;;3.97;;
43700;SDS011;58809;47.984;7.964;2023-07-28T09:33:28;5.60;;;4.10;;
43700;SDS011;58809;47.984;7.964;2023-07-28T09:36:31;5.63;;;4.05;;
43700;SDS011;58809;47.984;7.964;2023-07-28T09:39:34;4.90;;;4.20;;
43700;SDS011;58809;47.984;7.964;2023-07-28T09:42:38;4.40;;;4.00;;
43700;SDS011;58809;47.984;7.964;2023-07-28T09:45:42;4.63;;;3.93;;
43700;SDS011;58809;47.984;7.964;2023-07-28T09:48:45;7.90;;;4.60;;
43700;SDS011;58809;47.984;7.964;2023-07-28T09:51:50;6.38;;;3.90;;
43700;SDS011;58809;47.984;7.964;2023-07-28T09:54:55;6.07;;;4.15;;
43700;SDS011;58809;47.984;7.964;2023-07-28T09:58:01;6.20;;;4.15;;
43700;SDS011;58809;47.984;7.964;2023-07-28T10:01:07;4.97;;;4.07;;
43700;SDS011;58809;47.984;7.964;2023-07-28T10:04:11;5.00;;;4.10;;
43700;SDS011;58809;47.984;7.964;2023-07-28T10:07:12;4.80;;;4.00;;
43700;SDS011;58809;47.984;7.964;2023-07-28T10:10:14;6.15;;;4.47;;
43700;SDS011;58809;47.984;7.964;2023-07-28T10:13:20;4.85;;;4.15;;
43700;SDS011;58809;47.984;7.964;2023-07-28T10:16:38;4.97;;;3.85;;
43700;SDS011;58809;47.984;7.964;2023-07-28T10:19:41;5.80;;;3.90;;
43700;SDS011;58809;47.984;7.964;2023-07-28T10:22:44;5.13;;;4.07;;
43700;SDS011;58809;47.984;7.964;2023-07-28T10:25:46;5.38;;;4.05;;
43700;SDS011;58809;47.984;7.964;2023-07-28T10:28:56;5.55;;;4.18;;
43700;SDS011;58809;47.984;7.964;2023-07-28T10:32:09;4.73;;;3.83;;
43700;SDS011;58809;47.984;7.964;2023-07-28T10:35:27;5.70;;;4.22;;
43700;SDS011;58809;47.984;7.964;2023-07-28T10:38:31;6.47;;;4.00;;
43700;SDS011;58809;47.984;7.964;2023-07-28T10:41:35;5.57;;;4.40;;
43700;SDS011;58809;47.984;7.964;2023-07-28T10:44:37;6.03;;;4.30;;
43700;SDS011;58809;47.984;7.964;2023-07-28T10:47:39;7.28;;;4.05;;
43700;SDS011;58809;47.984;7.964;2023-07-28T10:53:45;4.63;;;4.13;;
43700;SDS011;58809;47.984;7.964;2023-07-28T10:56:47;6.50;;;4.43;;
43700;SDS011;58809;47.984;7.964;2023-07-28T10:59:50;4.32;;;3.90;;
43700;SDS011;58809;47.984;7.964;2023-07-28T11:02:52;5.78;;;3.97;;
43700;SDS011;58809;47.984;7.964;2023-07-28T11:05:55;8.15;;;4.20;;
43700;SDS011;58809;47.984;7.964;2023-07-28T11:08:57;5.20;;;3.97;;
43700;SDS011;58809;47.984;7.964;2023-07-28T11:11:59;6.53;;;4.55;;
43700;SDS011;58809;47.984;7.964;2023-07-28T11:15:01;4.95;;;4.07;;
43700;SDS011;58809;47.984;7.964;2023-07-28T11:18:04;7.63;;;4.40;;
43700;SDS011;58809;47.984;7.964;2023-07-28T11:21:06;6.60;;;4.00;;
43700;SDS011;58809;47.984;7.964;2023-07-28T11:24:09;7.28;;;4.78;;
43700;SDS011;58809;47.984;7.964;2023-07-28T11:27:11;10.77;;;4.40;;
43700;SDS011;58809;47.984;7.964;2023-07-28T11:30:16;5.03;;;4.53;;
43700;SDS011;58809;47.984;7.964;2023-07-28T11:33:19;5.50;;;4.63;;
43700;SDS011;58809;47.984;7.964;2023-07-28T11:36:23;7.32;;;4.30;;
43700;SDS011;58809;47.984;7.964;2023-07-28T11:39:25;5.40;;;4.70;;
43700;SDS011;58809;47.984;7.964;2023-07-28T11:42:28;5.97;;;4.65;;
43700;SDS011;58809;47.984;7.964;2023-07-28T11:45:30;6.63;;;4.63;;
43700;SDS011;58809;47.984;7.964;2023-07-28T11:48:32;6.45;;;4.65;;
43700;SDS011;58809;47.984;7.964;2023-07-28T11:51:38;5.35;;;4.72;;
43700;SDS011;58809;47.984;7.964;2023-07-28T11:54:41;5.55;;;4.70;;
43700;SDS011;58809;47.984;7.964;2023-07-28T11:57:43;5.95;;;4.45;;
43700;SDS011;58809;47.984;7.964;2023-07-28T12:00:44;5.38;;;4.53;;
43700;SDS011;58809;47.984;7.964;2023-07-28T12:03:46;6.75;;;4.30;;
43700;SDS011;58809;47.984;7.964;2023-07-28T12:07:01;5.60;;;4.53;;
43700;SDS011;58809;47.984;7.964;2023-07-28T12:10:20;8.07;;;5.22;;
43700;SDS011;58809;47.984;7.964;2023-07-28T12:13:25;6.20;;;4.22;;
43700;SDS011;58809;47.984;7.964;2023-07-28T12:16:41;6.28;;;4.82;;
43700;SDS011;58809;47.984;7.964;2023-07-28T12:19:58;7.72;;;5.03;;
43700;SDS011;58809;47.984;7.964;2023-07-28T12:23:19;5.93;;;5.03;;
43700;SDS011;58809;47.984;7.964;2023-07-28T12:26:24;5.72;;;4.90;;
43700;SDS011;58809;47.984;7.964;2023-07-28T12:29:25;7.32;;;5.22;;
43700;SDS011;58809;47.984;7.964;2023-07-28T12:32:30;6.20;;;5.00;;
43700;SDS011;58809;47.984;7.964;2023-07-28T12:35:34;8.75;;;5.25;;
43700;SDS011;58809;47.984;7.964;2023-07-28T12:38:39;5.90;;;5.30;;
43700;SDS011;58809;47.984;7.964;2023-07-28T12:41:43;6.35;;;4.97;;
43700;SDS011;58809;47.984;7.964;2023-07-28T12:45:06;6.18;;;5.28;;
43700;SDS011;58809;47.984;7.964;2023-07-28T12:48:10;6.45;;;5.00;;
43700;SDS011;58809;47.984;7.964;2023-07-28T12:51:21;6.85;;;5.47;;
43700;SDS011;58809;47.984;7.964;2023-07-28T12:54:25;5.68;;;4.60;;
43700;SDS011;58809;47.984;7.964;2023-07-28T12:57:27;8.68;;;5.20;;
43700;SDS011;58809;47.984;7.964;2023-07-28T13:00:28;6.20;;;4.97;;
43700;SDS011;58809;47.984;7.964;2023-07-28T13:03:33;5.05;;;4.45;;
43700;SDS011;58809;47.984;7.964;2023-07-28T13:06:35;9.30;;;5.30;;
43700;SDS011;58809;47.984;7.964;2023-07-28T13:09:37;9.13;;;5.57;;
43700;SDS011;58809;47.984;7.964;2023-07-28T13:12:43;6.00;;;5.13;;
43700;SDS011;58809;47.984;7.964;2023-07-28T13:15:47;7.25;;;5.75;;
43700;SDS011;58809;47.984;7.964;2023-07-28T13:18:49;6.18;;;5.03;;
43700;SDS011;58809;47.984;7.964;2023-07-28T13:21:50;8.38;;;5.75;;
43700;SDS011;58809;47.984;7.964;2023-07-28T13:24:52;6.80;;;5.07;;
43700;SDS011;58809;47.984;7.964;2023-07-28T13:27:55;6.15;;;5.40;;
43700;SDS011;58809;47.984;7.964;2023-07-28T13:30:56;7.35;;;5.25;;
43700;SDS011;58809;47.984;7.964;2023-07-28T13:34:00;5.03;;;4.35;;
43700;SDS011;58809;47.984;7.964;2023-07-28T13:37:02;5.18;;;4.20;;
43700;SDS011;58809;47.984;7.964;2023-07-28T13:40:03;5.90;;;4.75;;
43700;SDS011;58809;47.984;7.964;2023-07-28T13:43:10;5.72;;;4.78;;
43700;SDS011;58809;47.984;7.964;2023-07-28T13:46:17;7.68;;;4.47;;
43700;SDS011;58809;47.984;7.964;2023-07-28T13:49:19;5.70;;;4.60;;
43700;SDS011;58809;47.984;7.964;2023-07-28T13:52:21;6.88;;;4.68;;
43700;SDS011;58809;47.984;7.964;2023-07-28T13:55:23;4.70;;;4.05;;
43700;SDS011;58809;47.984;7.964;2023-07-28T13:58:41;4.63;;;4.00;;
43700;SDS011;58809;47.984;7.964;2023-07-28T14:01:43;4.63;;;4.10;;
43700;SDS011;58809;47.984;7.964;2023-07-28T14:04:44;4.07;;;3.67;;
43700;SDS011;58809;47.984;7.964;2023-07-28T14:07:46;3.33;;;3.03;;
43700;SDS011;58809;47.984;7.964;2023-07-28T14:10:48;4.32;;;3.55;;
43700;SDS011;58809;47.984;7.964;2023-07-28T14:13:49;4.40;;;3.20;;
43700;SDS011;58809;47.984;7.964;2023-07-28T14:16:51;3.42;;;3.13;;
43700;SDS011;58809;47.984;7.964;2023-07-28T14:19:52;6.38;;;3.60;;
43700;SDS011;58809;47.984;7.964;2023-07-28T14:22:54;5.00;;;3.60;;
43700;SDS011;58809;47.984;7.964;2023-07-28T14:25:55;3.72;;;3.22;;
43700;SDS011;58809;47.984;7.964;2023-07-28T14:28:58;4.57;;;3.25;;
43700;SDS011;58809;47.984;7.964;2023-07-28T14:32:00;4.22;;;3.30;;
43700;SDS011;58809;47.984;7.964;2023-07-28T14:35:01;6.07;;;3.40;;
43700;SDS011;58809;47.984;7.964;2023-07-28T14:38:03;4.95;;;3.53;;
43700;SDS011;58809;47.984;7.964;2023-07-28T14:41:05;6.93;;;4.00;;
43700;SDS011;58809;47.984;7.964;2023-07-28T14:44:06;3.58;;;2.72;;
43700;SDS011;58809;47.984;7.964;2023-07-28T14:47:08;4.72;;;3.03;;
43700;SDS011;58809;47.984;7.964;2023-07-28T14:50:09;5.10;;;3.58;;
43700;SDS011;58809;47.984;7.964;2023-07-28T14:56:32;4.35;;;3.20;;
43700;SDS011;58809;47.984;7.964;2023-07-28T14:59:34;3.13;;;2.83;;
43700;SDS011;58809;47.984;7.964;2023-07-28T15:02:35;4.28;;;3.10;;
43700;SDS011;58809;47.984;7.964;2023-07-28T15:05:37;3.70;;;3.30;;
43700;SDS011;58809;47.984;7.964;2023-07-28T15:08:39;4.20;;;2.83;;
43700;SDS011;58809;47.984;7.964;2023-07-28T15:11:41;6.75;;;3.13;;
43700;SDS011;58809;47.984;7.964;2023-07-28T15:14:42;4.40;;;3.40;;
43700;SDS011;58809;47.984;7.964;2023-07-28T15:17:44;4.55;;;3.33;;
43700;SDS011;58809;47.984;7.964;2023-07-28T15:20:45;3.80;;;3.08;;
43700;SDS011;58809;47.984;7.964;2023-07-28T15:23:52;5.85;;;4.70;;
43700;SDS011;58809;47.984;7.964;2023-07-28T15:26:55;4.25;;;3.55;;
43700;SDS011;58809;47.984;7.964;2023-07-28T15:29:56;7.50;;;3.80;;
43700;SDS011;58809;47.984;7.964;2023-07-28T15:32:58;8.25;;;3.53;;
43700;SDS011;58809;47.984;7.964;2023-07-28T15:36:00;5.97;;;4.00;;
43700;SDS011;58809;47.984;7.964;2023-07-28T15:39:02;5.47;;;3.55;;
43700;SDS011;58809;47.984;7.964;2023-07-28T15:42:05;7.18;;;3.88;;
43700;SDS011;58809;47.984;7.964;2023-07-28T15:45:07;5.28;;;3.60;;
43700;SDS011;58809;47.984;7.964;2023-07-28T15:48:09;5.35;;;3.70;;
43700;SDS011;58809;47.984;7.964;2023-07-28T15:51:10;8.20;;;4.22;;
43700;SDS011;58809;47.984;7.964;2023-07-28T15:54:12;5.28;;;4.07;;
43700;SDS011;58809;47.984;7.964;2023-07-28T15:57:14;5.78;;;3.67;;
43700;SDS011;58809;47.984;7.964;2023-07-28T16:00:16;7.07;;;4.90;;
43700;SDS011;58809;47.984;7.964;2023-07-28T16:03:17;6.32;;;4.10;;
43700;SDS011;58809;47.984;7.964;2023-07-28T16:06:19;5.50;;;3.75;;
43700;SDS011;58809;47.984;7.964;2023-07-28T16:09:21;6.32;;;4.10;;
43700;SDS011;58809;47.984;7.964;2023-07-28T16:12:22;6.93;;;4.70;;
43700;SDS011;58809;47.984;7.964;2023-07-28T16:15:27;5.93;;;3.80;;
43700;SDS011;58809;47.984;7.964;2023-07-28T16:18:29;5.50;;;3.53;;
43700;SDS011;58809;47.984;7.964;2023-07-28T16:21:30;5.50;;;3.78;;
43700;SDS011;58809;47.984;7.964;2023-07-28T16:24:32;4.65;;;3.28;;
43700;SDS011;58809;47.984;7.964;2023-07-28T16:27:34;5.45;;;3.65;;
43700;SDS011;58809;47.984;7.964;2023-07-28T16:30:36;4.65;;;3.65;;
43700;SDS011;58809;47.984;7.964;2023-07-28T16:33:38;4.93;;;3.60;;
43700;SDS011;58809;47.984;7.964;2023-07-28T16:36:39;4.38;;;3.13;;
43700;SDS011;58809;47.984;7.964;2023-07-28T16:39:41;6.88;;;3.75;;
43700;SDS011;58809;47.984;7.964;2023-07-28T16:42:42;4.95;;;3.47;;
43700;SDS011;58809;47.984;7.964;2023-07-28T16:45:48;4.82;;;3.60;;
43700;SDS011;58809;47.984;7.964;2023-07-28T16:48:49;4.32;;;3.42;;
43700;SDS011;58809;47.984;7.964;2023-07-28T16:51:51;4.93;;;3.30;;
43700;SDS011;58809;47.984;7.964;2023-07-28T16:54:52;5.50;;;3.40;;
43700;SDS011;58809;47.984;7.964;2023-07-28T16:57:54;5.13;;;3.63;;
43700;SDS011;58809;47.984;7.964;2023-07-28T17:00:55;5.82;;;3.88;;
43700;SDS011;58809;47.984;7.964;2023-07-28T17:03:57;5.70;;;3.60;;
43700;SDS011;58809;47.984;7.964;2023-07-28T17:06:59;6.90;;;3.88;;
43700;SDS011;58809;47.984;7.964;2023-07-28T17:10:00;5.47;;;3.55;;
43700;SDS011;58809;47.984;7.964;2023-07-28T17:13:02;9.50;;;3.80;;
43700;SDS011;58809;47.984;7.964;2023-07-28T17:16:04;6.28;;;4.10;;
43700;SDS011;58809;47.984;7.964;2023-07-28T17:19:05;6.32;;;4.38;;
43700;SDS011;58809;47.984;7.964;2023-07-28T17:22:07;5.95;;;4.30;;
43700;SDS011;58809;47.984;7.964;2023-07-28T17:25:09;5.45;;;4.25;;
43700;SDS011;58809;47.984;7.964;2023-07-28T17:28:10;5.93;;;3.70;;
43700;SDS011;58809;47.984;7.964;2023-07-28T17:31:12;9.18;;;8.27;;
43700;SDS011;58809;47.984;7.964;2023-07-28T17:34:14;7.13;;;5.38;;
43700;SDS011;58809;47.984;7.964;2023-07-28T17:37:15;5.55;;;4.70;;
43700;SDS011;58809;47.984;7.964;2023-07-28T17:40:17;6.45;;;4.88;;
43700;SDS011;58809;47.984;7.964;2023-07-28T17:43:18;6.05;;;4.53;;
43700;SDS011;58809;47.984;7.964;2023-07-28T17:46:20;5.35;;;3.78;;
43700;SDS011;58809;47.984;7.964;2023-07-28T17:49:21;6.82;;;4.00;;
43700;SDS011;58809;47.984;7.964;2023-07-28T17:52:23;3.72;;;3.33;;
43700;SDS011;58809;47.984;7.964;2023-07-28T17:55:24;4.68;;;4.00;;
43700;SDS011;58809;47.984;7.964;2023-07-28T17:58:27;5.05;;;3.75;;
43700;SDS011;58809;47.984;7.964;2023-07-28T18:01:28;5.20;;;4.07;;
43700;SDS011;58809;47.984;7.964;2023-07-28T18:04:30;7.70;;;3.60;;
43700;SDS011;58809;47.984;7.964;2023-07-28T18:07:32;5.88;;;4.05;;
43700;SDS011;58809;47.984;7.964;2023-07-28T18:10:33;8.63;;;4.25;;
43700;SDS011;58809;47.984;7.964;2023-07-28T18:13:35;5.03;;;3.90;;
43700;SDS011;58809;47.984;7.964;2023-07-28T18:16:36;5.32;;;3.72;;
43700;SDS011;58809;47.984;7.964;2023-07-28T18:19:38;4.85;;;3.70;;
43700;SDS011;58809;47.984;7.964;2023-07-28T18:22:40;5.63;;;3.85;;
43700;SDS011;58809;47.984;7.964;2023-07-28T18:25:41;4.72;;;3.83;;
43700;SDS011;58809;47.984;7.964;2023-07-28T18:28:43;5.43;;;4.47;;
43700;SDS011;58809;47.984;7.964;2023-07-28T18:31:44;6.65;;;4.15;;
43700;SDS011;58809;47.984;7.964;2023-07-28T18:34:46;6.25;;;5.20;;
43700;SDS011;58809;47.984;7.964;2023-07-28T18:37:47;6.32;;;4.57;;
43700;SDS011;58809;47.984;7.964;2023-07-28T18:40:49;5.53;;;4.25;;
43700;SDS011;58809;47.984;7.964;2023-07-28T18:43:50;5.70;;;3.78;;
43700;SDS011;58809;47.984;7.964;2023-07-28T18:46:52;6.40;;;4.57;;